TimeCDT,TemperatureF,Dew PointF,Humidity,Sea Level PressureIn,VisibilityMPH,Wind Direction,Wind SpeedMPH,Gust SpeedMPH,PrecipitationIn,Events,Conditions,WindDirDegrees,DateUTC
12:55 AM,62.1,51.1,67,29.68,10.0,WSW,11.5,-,N/A,,Clear,240,2013-09-24 05:55:00
1:18 AM,62.6,51.8,68,29.71,10.0,SW,9.2,-,N/A,,Mostly Cloudy,230,2013-09-24 06:18:00
1:43 AM,62.6,51.8,68,29.71,10.0,WSW,11.5,-,N/A,,Scattered Clouds,240,2013-09-24 06:43:00
1:55 AM,63.0,52.0,67,29.68,10.0,WSW,13.8,18.4,N/A,,Mostly Cloudy,240,2013-09-24 06:55:00
2:08 AM,62.6,51.8,68,29.71,10.0,WSW,11.5,-,N/A,,Mostly Cloudy,250,2013-09-24 07:08:00
2:55 AM,61.0,53.1,75,29.68,10.0,West,16.1,-,N/A,,Scattered Clouds,270,2013-09-24 07:55:00
3:28 AM,60.8,53.6,77,29.72,10.0,West,12.7,-,N/A,,Mostly Cloudy,260,2013-09-24 08:28:00
3:48 AM,60.8,53.6,77,29.72,10.0,West,15.0,-,N/A,,Scattered Clouds,270,2013-09-24 08:48:00
3:55 AM,60.1,53.1,78,29.69,10.0,West,13.8,-,N/A,,Scattered Clouds,270,2013-09-24 08:55:00
4:55 AM,60.1,53.1,78,29.71,10.0,WNW,16.1,23.0,N/A,,Clear,290,2013-09-24 09:55:00
5:55 AM,59.0,53.1,81,29.74,10.0,WNW,12.7,-,N/A,,Clear,300,2013-09-24 10:55:00
6:55 AM,57.9,53.1,84,29.76,10.0,WNW,15.0,-,N/A,,Clear,290,2013-09-24 11:55:00
7:55 AM,60.1,54.0,80,29.80,10.0,NW,15.0,26.5,N/A,,Mostly Cloudy,310,2013-09-24 12:55:00
8:55 AM,61.0,54.0,78,29.82,10.0,NW,15.0,25.3,N/A,,Overcast,310,2013-09-24 13:55:00
9:55 AM,64.0,54.0,70,29.85,10.0,NNW,23.0,32.2,N/A,,Mostly Cloudy,330,2013-09-24 14:55:00
10:06 AM,64.4,53.6,68,29.88,10.0,NNW,18.4,25.3,N/A,,Scattered Clouds,330,2013-09-24 15:06:00
10:19 AM,66.2,53.6,64,29.89,10.0,NW,18.4,26.5,N/A,,Mostly Cloudy,320,2013-09-24 15:19:00
10:55 AM,66.0,54.0,65,29.88,10.0,NW,19.6,26.5,N/A,,Mostly Cloudy,310,2013-09-24 15:55:00
11:55 AM,68.0,54.0,61,29.89,10.0,NNW,18.4,28.8,N/A,,Overcast,330,2013-09-24 16:55:00
12:04 PM,69.8,53.6,56,29.91,10.0,NNW,16.1,25.3,N/A,,Overcast,330,2013-09-24 17:04:00
12:36 PM,69.8,53.6,56,29.91,10.0,NW,17.3,26.5,N/A,,Overcast,320,2013-09-24 17:36:00
12:55 PM,69.1,54.0,58,29.89,10.0,NNW,18.4,28.8,N/A,,Overcast,330,2013-09-24 17:55:00
1:55 PM,69.1,54.0,58,29.89,10.0,NNW,18.4,26.5,N/A,,Overcast,340,2013-09-24 18:55:00
2:55 PM,70.0,54.0,57,29.90,10.0,NW,16.1,-,N/A,,Overcast,320,2013-09-24 19:55:00
3:55 PM,73.0,54.0,51,29.88,10.0,North,12.7,20.7,N/A,,Overcast,10,2013-09-24 20:55:00
4:55 PM,73.0,53.1,49,29.88,10.0,North,12.7,21.9,N/A,,Overcast,10,2013-09-24 21:55:00
5:55 PM,73.0,54.0,51,29.89,10.0,North,11.5,-,N/A,,Mostly Cloudy,10,2013-09-24 22:55:00
6:55 PM,69.1,54.0,58,29.90,10.0,NNE,8.1,-,N/A,,Clear,20,2013-09-24 23:55:00
7:55 PM,64.0,54.0,70,29.90,10.0,Calm,Calm,-,N/A,,Clear,0,2013-09-25 00:55:00
8:55 PM,63.0,55.0,75,29.91,10.0,Calm,Calm,-,N/A,,Clear,0,2013-09-25 01:55:00
9:55 PM,60.1,53.1,78,29.91,10.0,North,3.5,-,N/A,,Clear,10,2013-09-25 02:55:00
10:55 PM,59.0,54.0,83,29.91,8.0,Calm,Calm,-,N/A,,Clear,0,2013-09-25 03:55:00
11:55 PM,59.0,54.0,83,29.91,8.0,Calm,Calm,-,N/A,,Clear,0,2013-09-25 04:55:00